PWSweather.com
Personal Weather Stations
Station Observations
ILOMBARD30
LodiIT 26900

LodiIT 26900

Lat: 45.2993, Lon: 9.5207

Elevation: 255

Station Type: Davis Vantege Pro2 Plus 24h

http://www.meteo-iw2gob.it

High Low Average
Temperature 63.5°F17.5°C 46.1°F7.8°C 52.7°F11.5°C
Dew Point 46.7°F8.2°C 10.5°F-11.9°C 30.1°F-1.1°C
Winds 26.5 mph 42.6 kmh 1.2 mph 1.9 kmh 10.0 mph WNW16.1 kmh WNW
Wind Gusts 38.0 mph61.2 kmh 2.3 mph3.7 kmh 14.0 mph22.5 kmh
Humidity 86% 18% 49%
Pressure 30.20 in1022.7 mb 29.87 in1011.5 mb -
Precipitation 0.00 in0.0 mm - -
Hour Temp Dew Point Humidity Winds Wind Gusts Pressure Precip Precip Rate Daily Precip Total
12:00 AM 52.3°F11.3°C 46.6°F8.1°C 81% 1.2 mph WNW1.9 kmh WNW 2.3 mph3.7 kmh 29.89 in1012.2 mb - 0.00 in0.0 mm 0.00 in0.0 mm
12:05 AM 52.3°F11.3°C 46.6°F8.1°C 81% 2.3 mph WNW3.7 kmh WNW 3.5 mph5.6 kmh 29.89 in1012.2 mb - 0.00 in0.0 mm 0.00 in0.0 mm
12:10 AM 52.2°F11.2°C 46.5°F8.1°C 81% 2.3 mph WSW3.7 kmh WSW 2.3 mph3.7 kmh 29.89 in1012.2 mb - 0.00 in0.0 mm 0.00 in0.0 mm
12:15 AM 52.1°F11.2°C 46.4°F8.0°C 81% 1.2 mph WNW1.9 kmh WNW 3.5 mph5.6 kmh 29.89 in1012.2 mb - 0.00 in0.0 mm 0.00 in0.0 mm
12:20 AM 52.1°F11.2°C 46.4°F8.0°C 81% 3.5 mph NNW5.6 kmh NNW 3.5 mph5.6 kmh 29.89 in1012.2 mb - 0.00 in0.0 mm 0.00 in0.0 mm
12:25 AM 51.9°F11.1°C 46.3°F7.9°C 81% 2.3 mph N3.7 kmh N 3.5 mph5.6 kmh 29.89 in1012.2 mb - 0.00 in0.0 mm 0.00 in0.0 mm
12:30 AM 51.8°F11.0°C 46.1°F7.8°C 81% 1.2 mph N1.9 kmh N 2.3 mph3.7 kmh 29.89 in1012.2 mb - 0.00 in0.0 mm 0.00 in0.0 mm
12:35 AM 51.5°F10.8°C 45.9°F7.7°C 81% 2.3 mph WSW3.7 kmh WSW 3.5 mph5.6 kmh 29.89 in1012.2 mb - 0.00 in0.0 mm 0.00 in0.0 mm
12:40 AM 51.4°F10.8°C 46.1°F7.8°C 82% 2.3 mph WSW3.7 kmh WSW 3.5 mph5.6 kmh 29.89 in1012.2 mb - 0.00 in0.0 mm 0.00 in0.0 mm
12:45 AM 51.4°F10.8°C 46.4°F8.0°C 83% 3.5 mph W5.6 kmh W 4.6 mph7.4 kmh 29.88 in1011.9 mb - 0.00 in0.0 mm 0.00 in0.0 mm
12:50 AM 51.7°F10.9°C 46.4°F8.0°C 82% 4.6 mph WSW7.4 kmh WSW 6.9 mph11.1 kmh 29.89 in1012.2 mb - 0.00 in0.0 mm 0.00 in0.0 mm
12:55 AM 51.9°F11.1°C 46.6°F8.1°C 82% 3.5 mph WSW5.6 kmh WSW 5.8 mph9.3 kmh 29.89 in1012.2 mb - 0.00 in0.0 mm 0.00 in0.0 mm
01:00 AM 52.1°F11.2°C 46.4°F8.0°C 81% 3.5 mph WSW5.6 kmh WSW 4.6 mph7.4 kmh 29.89 in1012.2 mb - 0.00 in0.0 mm 0.00 in0.0 mm
01:05 AM 52.1°F11.2°C 46.4°F8.0°C 81% 4.6 mph WSW7.4 kmh WSW 8.1 mph13.0 kmh 29.89 in1012.2 mb - 0.00 in0.0 mm 0.00 in0.0 mm
01:10 AM 52.1°F11.2°C 46.4°F8.0°C 81% 4.6 mph W7.4 kmh W 4.6 mph7.4 kmh 29.89 in1012.2 mb - 0.00 in0.0 mm 0.00 in0.0 mm
01:15 AM 52.0°F11.1°C 46.3°F7.9°C 81% 4.6 mph W7.4 kmh W 6.9 mph11.1 kmh 29.89 in1012.2 mb - 0.00 in0.0 mm 0.00 in0.0 mm
01:20 AM 51.9°F11.1°C 46.3°F7.9°C 81% 4.6 mph WSW7.4 kmh WSW 5.8 mph9.3 kmh 29.89 in1012.2 mb - 0.00 in0.0 mm 0.00 in0.0 mm
01:25 AM 51.9°F11.1°C 46.3°F7.9°C 81% 4.6 mph WSW7.4 kmh WSW 6.9 mph11.1 kmh 29.89 in1012.2 mb - 0.00 in0.0 mm 0.00 in0.0 mm
01:30 AM 51.9°F11.1°C 46.3°F7.9°C 81% 5.8 mph WSW9.3 kmh WSW 10.4 mph16.7 kmh 29.89 in1012.2 mb - 0.00 in0.0 mm 0.00 in0.0 mm
01:35 AM 51.9°F11.1°C 46.3°F7.9°C 81% 5.8 mph WSW9.3 kmh WSW 6.9 mph11.1 kmh 29.89 in1012.2 mb - 0.00 in0.0 mm 0.00 in0.0 mm
01:40 AM 51.9°F11.1°C 46.3°F7.9°C 81% 5.8 mph WSW9.3 kmh WSW 6.9 mph11.1 kmh 29.89 in1012.2 mb - 0.00 in0.0 mm 0.00 in0.0 mm
01:45 AM 52.0°F11.1°C 46.3°F7.9°C 81% 5.8 mph W9.3 kmh W 10.4 mph16.7 kmh 29.89 in1012.2 mb - 0.00 in0.0 mm 0.00 in0.0 mm
01:50 AM 52.1°F11.2°C 46.4°F8.0°C 81% 8.1 mph WSW13.0 kmh WSW 10.4 mph16.7 kmh 29.89 in1012.2 mb - 0.00 in0.0 mm 0.00 in0.0 mm
01:55 AM 52.2°F11.2°C 46.5°F8.1°C 81% 5.8 mph WSW9.3 kmh WSW 10.4 mph16.7 kmh 29.89 in1012.2 mb - 0.00 in0.0 mm 0.00 in0.0 mm
02:00 AM 52.4°F11.3°C 46.7°F8.2°C 81% 6.9 mph WSW11.1 kmh WSW 9.2 mph14.8 kmh 29.89 in1012.2 mb - 0.00 in0.0 mm 0.00 in0.0 mm
02:05 AM 52.6°F11.4°C 46.6°F8.1°C 80% 5.8 mph WSW9.3 kmh WSW 9.2 mph14.8 kmh 29.89 in1012.2 mb - 0.00 in0.0 mm 0.00 in0.0 mm
02:10 AM 52.7°F11.5°C 46.7°F8.2°C 80% 8.1 mph WSW13.0 kmh WSW 11.5 mph18.5 kmh 29.89 in1012.2 mb - 0.00 in0.0 mm 0.00 in0.0 mm
02:15 AM 52.7°F11.5°C 46.7°F8.2°C 80% 6.9 mph W11.1 kmh W 10.4 mph16.7 kmh 29.89 in1012.2 mb - 0.00 in0.0 mm 0.00 in0.0 mm
02:20 AM 52.6°F11.4°C 46.6°F8.1°C 80% 6.9 mph W11.1 kmh W 12.7 mph20.4 kmh 29.88 in1011.9 mb - 0.00 in0.0 mm 0.00 in0.0 mm
02:25 AM 52.6°F11.4°C 46.6°F8.1°C 80% 8.1 mph WSW13.0 kmh WSW 11.5 mph18.5 kmh 29.88 in1011.9 mb - 0.00 in0.0 mm 0.00 in0.0 mm
02:30 AM 52.4°F11.3°C 46.5°F8.1°C 80% 8.1 mph WSW13.0 kmh WSW 9.2 mph14.8 kmh 29.88 in1011.9 mb - 0.00 in0.0 mm 0.00 in0.0 mm
02:35 AM 52.1°F11.2°C 46.4°F8.0°C 81% 5.8 mph WSW9.3 kmh WSW 11.5 mph18.5 kmh 29.88 in1011.9 mb - 0.00 in0.0 mm 0.00 in0.0 mm
02:40 AM 51.7°F10.9°C 46.4°F8.0°C 82% 6.9 mph WSW11.1 kmh WSW 10.4 mph16.7 kmh 29.88 in1011.9 mb - 0.00 in0.0 mm 0.00 in0.0 mm
02:45 AM 51.6°F10.9°C 46.3°F7.9°C 82% 6.9 mph WSW11.1 kmh WSW 9.2 mph14.8 kmh 29.88 in1011.9 mb - 0.00 in0.0 mm 0.00 in0.0 mm
02:50 AM 51.6°F10.9°C 46.3°F7.9°C 82% 6.9 mph WSW11.1 kmh WSW 11.5 mph18.5 kmh 29.88 in1011.9 mb - 0.00 in0.0 mm 0.00 in0.0 mm
02:55 AM 51.5°F10.8°C 46.1°F7.8°C 82% 6.9 mph WSW11.1 kmh WSW 9.2 mph14.8 kmh 29.88 in1011.9 mb - 0.00 in0.0 mm 0.00 in0.0 mm
03:00 AM 51.2°F10.7°C 45.9°F7.7°C 82% 8.1 mph WSW13.0 kmh WSW 11.5 mph18.5 kmh 29.88 in1011.9 mb - 0.00 in0.0 mm 0.00 in0.0 mm
03:05 AM 50.9°F10.5°C 46.0°F7.8°C 83% 6.9 mph WSW11.1 kmh WSW 11.5 mph18.5 kmh 29.88 in1011.9 mb - 0.00 in0.0 mm 0.00 in0.0 mm
03:10 AM 50.7°F10.4°C 45.7°F7.6°C 83% 8.1 mph WSW13.0 kmh WSW 10.4 mph16.7 kmh 29.87 in1011.5 mb - 0.00 in0.0 mm 0.00 in0.0 mm
03:15 AM 50.6°F10.3°C 45.6°F7.6°C 83% 6.9 mph WSW11.1 kmh WSW 9.2 mph14.8 kmh 29.87 in1011.5 mb - 0.00 in0.0 mm 0.00 in0.0 mm
03:20 AM 50.5°F10.3°C 45.8°F7.7°C 84% 8.1 mph WSW13.0 kmh WSW 10.4 mph16.7 kmh 29.87 in1011.5 mb - 0.00 in0.0 mm 0.00 in0.0 mm
03:25 AM 50.3°F10.2°C 45.6°F7.6°C 84% 6.9 mph WSW11.1 kmh WSW 9.2 mph14.8 kmh 29.87 in1011.5 mb - 0.00 in0.0 mm 0.00 in0.0 mm
03:30 AM 50.2°F10.1°C 45.6°F7.6°C 84% 4.6 mph WSW7.4 kmh WSW 5.8 mph9.3 kmh 29.87 in1011.5 mb - 0.00 in0.0 mm 0.00 in0.0 mm
03:35 AM 50.1°F10.1°C 45.5°F7.5°C 84% 6.9 mph WSW11.1 kmh WSW 11.5 mph18.5 kmh 29.87 in1011.5 mb - 0.00 in0.0 mm 0.00 in0.0 mm
03:40 AM 50.0°F10.0°C 45.3°F7.4°C 84% 6.9 mph WSW11.1 kmh WSW 11.5 mph18.5 kmh 29.87 in1011.5 mb - 0.00 in0.0 mm 0.00 in0.0 mm
03:45 AM 49.9°F9.9°C 45.3°F7.4°C 84% 8.1 mph WSW13.0 kmh WSW 11.5 mph18.5 kmh 29.87 in1011.5 mb - 0.00 in0.0 mm 0.00 in0.0 mm
03:50 AM 49.9°F9.9°C 45.3°F7.4°C 84% 8.1 mph WSW13.0 kmh WSW 10.4 mph16.7 kmh 29.87 in1011.5 mb - 0.00 in0.0 mm 0.00 in0.0 mm
03:55 AM 49.8°F9.9°C 45.2°F7.3°C 84% 8.1 mph WSW13.0 kmh WSW 11.5 mph18.5 kmh 29.87 in1011.5 mb - 0.00 in0.0 mm 0.00 in0.0 mm
04:00 AM 49.7°F9.8°C 45.1°F7.3°C 84% 8.1 mph WSW13.0 kmh WSW 12.7 mph20.4 kmh 29.87 in1011.5 mb - 0.00 in0.0 mm 0.00 in0.0 mm
04:05 AM 49.7°F9.8°C 45.1°F7.3°C 84% 6.9 mph SW11.1 kmh SW 11.5 mph18.5 kmh 29.87 in1011.5 mb - 0.00 in0.0 mm 0.00 in0.0 mm
04:10 AM 49.7°F9.8°C 45.1°F7.3°C 84% 6.9 mph WSW11.1 kmh WSW 11.5 mph18.5 kmh 29.88 in1011.9 mb - 0.00 in0.0 mm 0.00 in0.0 mm
04:15 AM 49.6°F9.8°C 45.0°F7.2°C 84% 5.8 mph WSW9.3 kmh WSW 10.4 mph16.7 kmh 29.87 in1011.5 mb - 0.00 in0.0 mm 0.00 in0.0 mm
04:20 AM 49.6°F9.8°C 44.9°F7.2°C 84% 5.8 mph WSW9.3 kmh WSW 8.1 mph13.0 kmh 29.88 in1011.9 mb - 0.00 in0.0 mm 0.00 in0.0 mm
04:25 AM 49.4°F9.7°C 44.8°F7.1°C 84% 4.6 mph WSW7.4 kmh WSW 6.9 mph11.1 kmh 29.88 in1011.9 mb - 0.00 in0.0 mm 0.00 in0.0 mm
04:30 AM 49.4°F9.7°C 44.8°F7.1°C 84% 5.8 mph WSW9.3 kmh WSW 5.8 mph9.3 kmh 29.87 in1011.5 mb - 0.00 in0.0 mm 0.00 in0.0 mm
04:35 AM 49.3°F9.6°C 44.7°F7.1°C 84% 6.9 mph WSW11.1 kmh WSW 8.1 mph13.0 kmh 29.87 in1011.5 mb - 0.00 in0.0 mm 0.00 in0.0 mm
04:40 AM 49.4°F9.7°C 44.8°F7.1°C 84% 8.1 mph WSW13.0 kmh WSW 11.5 mph18.5 kmh 29.87 in1011.5 mb - 0.00 in0.0 mm 0.00 in0.0 mm
04:45 AM 49.4°F9.7°C 44.8°F7.1°C 84% 8.1 mph WSW13.0 kmh WSW 10.4 mph16.7 kmh 29.87 in1011.5 mb - 0.00 in0.0 mm 0.00 in0.0 mm
04:50 AM 49.4°F9.7°C 44.8°F7.1°C 84% 8.1 mph WSW13.0 kmh WSW 9.2 mph14.8 kmh 29.88 in1011.9 mb - 0.00 in0.0 mm 0.00 in0.0 mm
04:55 AM 49.3°F9.6°C 44.7°F7.1°C 84% 5.8 mph W9.3 kmh W 8.1 mph13.0 kmh 29.88 in1011.9 mb - 0.00 in0.0 mm 0.00 in0.0 mm
05:00 AM 49.2°F9.6°C 44.6°F7.0°C 84% 6.9 mph WSW11.1 kmh WSW 11.5 mph18.5 kmh 29.88 in1011.9 mb - 0.00 in0.0 mm 0.00 in0.0 mm
05:05 AM 49.2°F9.6°C 44.6°F7.0°C 84% 8.1 mph WSW13.0 kmh WSW 11.5 mph18.5 kmh 29.88 in1011.9 mb - 0.00 in0.0 mm 0.00 in0.0 mm
05:10 AM 49.1°F9.5°C 44.5°F6.9°C 84% 6.9 mph WSW11.1 kmh WSW 8.1 mph13.0 kmh 29.88 in1011.9 mb - 0.00 in0.0 mm 0.00 in0.0 mm
05:15 AM 49.0°F9.4°C 44.4°F6.9°C 84% 6.9 mph WSW11.1 kmh WSW 11.5 mph18.5 kmh 29.88 in1011.9 mb - 0.00 in0.0 mm 0.00 in0.0 mm
05:20 AM 48.9°F9.4°C 44.3°F6.8°C 84% 6.9 mph WSW11.1 kmh WSW 9.2 mph14.8 kmh 29.88 in1011.9 mb - 0.00 in0.0 mm 0.00 in0.0 mm
05:25 AM 48.8°F9.3°C 44.2°F6.8°C 84% 8.1 mph SW13.0 kmh SW 11.5 mph18.5 kmh 29.88 in1011.9 mb - 0.00 in0.0 mm 0.00 in0.0 mm
05:30 AM 48.7°F9.3°C 44.1°F6.7°C 84% 9.2 mph WSW14.8 kmh WSW 12.7 mph20.4 kmh 29.88 in1011.9 mb - 0.00 in0.0 mm 0.00 in0.0 mm
05:35 AM 48.6°F9.2°C 44.0°F6.7°C 84% 8.1 mph WSW13.0 kmh WSW 10.4 mph16.7 kmh 29.89 in1012.2 mb - 0.00 in0.0 mm 0.00 in0.0 mm
05:40 AM 48.4°F9.1°C 43.8°F6.6°C 84% 8.1 mph WSW13.0 kmh WSW 11.5 mph18.5 kmh 29.89 in1012.2 mb - 0.00 in0.0 mm 0.00 in0.0 mm
05:45 AM 48.3°F9.1°C 44.0°F6.7°C 85% 9.2 mph WSW14.8 kmh WSW 11.5 mph18.5 kmh 29.89 in1012.2 mb - 0.00 in0.0 mm 0.00 in0.0 mm
05:50 AM 48.0°F8.9°C 43.7°F6.5°C 85% 8.1 mph WSW13.0 kmh WSW 11.5 mph18.5 kmh 29.89 in1012.2 mb - 0.00 in0.0 mm 0.00 in0.0 mm
05:55 AM 47.8°F8.8°C 43.5°F6.4°C 85% 9.2 mph WSW14.8 kmh WSW 12.7 mph20.4 kmh 29.90 in1012.5 mb - 0.00 in0.0 mm 0.00 in0.0 mm
06:00 AM 47.6°F8.7°C 43.6°F6.4°C 86% 9.2 mph WSW14.8 kmh WSW 15.0 mph24.1 kmh 29.90 in1012.5 mb - 0.00 in0.0 mm 0.00 in0.0 mm
06:05 AM 47.4°F8.6°C 43.4°F6.3°C 86% 10.4 mph WSW16.7 kmh WSW 12.7 mph20.4 kmh 29.90 in1012.5 mb - 0.00 in0.0 mm 0.00 in0.0 mm
06:10 AM 47.3°F8.5°C 43.3°F6.3°C 86% 8.1 mph WSW13.0 kmh WSW 11.5 mph18.5 kmh 29.90 in1012.5 mb - 0.00 in0.0 mm 0.00 in0.0 mm
06:15 AM 47.2°F8.4°C 43.3°F6.3°C 86% 9.2 mph WSW14.8 kmh WSW 12.7 mph20.4 kmh 29.90 in1012.5 mb - 0.00 in0.0 mm 0.00 in0.0 mm
06:20 AM 47.2°F8.4°C 43.2°F6.2°C 86% 8.1 mph WSW13.0 kmh WSW 10.4 mph16.7 kmh 29.91 in1012.9 mb - 0.00 in0.0 mm 0.00 in0.0 mm
06:25 AM 47.0°F8.3°C 43.0°F6.1°C 86% 9.2 mph WSW14.8 kmh WSW 12.7 mph20.4 kmh 29.90 in1012.5 mb - 0.00 in0.0 mm 0.00 in0.0 mm
06:30 AM 46.9°F8.3°C 42.9°F6.1°C 86% 10.4 mph W16.7 kmh W 12.7 mph20.4 kmh 29.90 in1012.5 mb - 0.00 in0.0 mm 0.00 in0.0 mm
06:35 AM 46.9°F8.3°C 42.9°F6.1°C 86% 8.1 mph WSW13.0 kmh WSW 8.1 mph13.0 kmh 29.91 in1012.9 mb - 0.00 in0.0 mm 0.00 in0.0 mm
06:40 AM 47.0°F8.3°C 42.7°F5.9°C 85% 6.9 mph WSW11.1 kmh WSW 10.4 mph16.7 kmh 29.91 in1012.9 mb - 0.00 in0.0 mm 0.00 in0.0 mm
06:45 AM 47.0°F8.3°C 42.4°F5.8°C 84% 6.9 mph WSW11.1 kmh WSW 8.1 mph13.0 kmh 29.91 in1012.9 mb - 0.00 in0.0 mm 0.00 in0.0 mm
06:50 AM 47.0°F8.3°C 42.4°F5.8°C 84% 9.2 mph WSW14.8 kmh WSW 12.7 mph20.4 kmh 29.91 in1012.9 mb - 0.00 in0.0 mm 0.00 in0.0 mm
06:55 AM 46.8°F8.2°C 42.2°F5.7°C 84% 9.2 mph WSW14.8 kmh WSW 10.4 mph16.7 kmh 29.91 in1012.9 mb - 0.00 in0.0 mm 0.00 in0.0 mm
07:00 AM 46.6°F8.1°C 42.0°F5.6°C 84% 9.2 mph WSW14.8 kmh WSW 12.7 mph20.4 kmh 29.91 in1012.9 mb - 0.00 in0.0 mm 0.00 in0.0 mm
07:05 AM 46.5°F8.1°C 41.9°F5.5°C 84% 9.2 mph WSW14.8 kmh WSW 12.7 mph20.4 kmh 29.91 in1012.9 mb - 0.00 in0.0 mm 0.00 in0.0 mm
07:10 AM 46.5°F8.1°C 41.9°F5.5°C 84% 8.1 mph WSW13.0 kmh WSW 11.5 mph18.5 kmh 29.91 in1012.9 mb - 0.00 in0.0 mm 0.00 in0.0 mm
07:15 AM 46.6°F8.1°C 41.7°F5.4°C 83% 9.2 mph WSW14.8 kmh WSW 11.5 mph18.5 kmh 29.91 in1012.9 mb - 0.00 in0.0 mm 0.00 in0.0 mm
07:20 AM 46.6°F8.1°C 41.7°F5.4°C 83% 9.2 mph WSW14.8 kmh WSW 11.5 mph18.5 kmh 29.91 in1012.9 mb - 0.00 in0.0 mm 0.00 in0.0 mm
07:25 AM 46.7°F8.2°C 41.5°F5.3°C 82% 8.1 mph WSW13.0 kmh WSW 10.4 mph16.7 kmh 29.92 in1013.2 mb - 0.00 in0.0 mm 0.00 in0.0 mm
07:30 AM 46.9°F8.3°C 41.7°F5.4°C 82% 8.1 mph WSW13.0 kmh WSW 10.4 mph16.7 kmh 29.92 in1013.2 mb - 0.00 in0.0 mm 0.00 in0.0 mm
07:35 AM 47.2°F8.4°C 41.7°F5.4°C 81% 6.9 mph SW11.1 kmh SW 8.1 mph13.0 kmh 29.92 in1013.2 mb - 0.00 in0.0 mm 0.00 in0.0 mm
07:40 AM 47.5°F8.6°C 41.7°F5.4°C 80% 8.1 mph WSW13.0 kmh WSW 10.4 mph16.7 kmh 29.92 in1013.2 mb - 0.00 in0.0 mm 0.00 in0.0 mm
07:45 AM 47.9°F8.8°C 41.7°F5.4°C 79% 8.1 mph WSW13.0 kmh WSW 10.4 mph16.7 kmh 29.92 in1013.2 mb - 0.00 in0.0 mm 0.00 in0.0 mm
07:50 AM 48.3°F9.1°C 41.7°F5.4°C 78% 5.8 mph WSW9.3 kmh WSW 11.5 mph18.5 kmh 29.92 in1013.2 mb - 0.00 in0.0 mm 0.00 in0.0 mm
07:55 AM 48.6°F9.2°C 41.7°F5.4°C 77% 6.9 mph WSW11.1 kmh WSW 10.4 mph16.7 kmh 29.92 in1013.2 mb - 0.00 in0.0 mm 0.00 in0.0 mm
08:00 AM 48.8°F9.3°C 41.5°F5.3°C 76% 6.9 mph WSW11.1 kmh WSW 10.4 mph16.7 kmh 29.93 in1013.5 mb - 0.00 in0.0 mm 0.00 in0.0 mm
08:05 AM 49.0°F9.4°C 41.8°F5.4°C 76% 5.8 mph WSW9.3 kmh WSW 10.4 mph16.7 kmh 29.93 in1013.5 mb - 0.00 in0.0 mm 0.00 in0.0 mm
08:10 AM 49.2°F9.6°C 41.6°F5.3°C 75% 8.1 mph WSW13.0 kmh WSW 11.5 mph18.5 kmh 29.93 in1013.5 mb - 0.00 in0.0 mm 0.00 in0.0 mm
08:15 AM 49.5°F9.7°C 41.9°F5.5°C 75% 5.8 mph WSW9.3 kmh WSW 8.1 mph13.0 kmh 29.93 in1013.5 mb - 0.00 in0.0 mm 0.00 in0.0 mm
08:20 AM 49.8°F9.9°C 42.2°F5.7°C 75% 8.1 mph WSW13.0 kmh WSW 11.5 mph18.5 kmh 29.93 in1013.5 mb - 0.00 in0.0 mm 0.00 in0.0 mm
08:25 AM 50.1°F10.1°C 42.1°F5.6°C 74% 8.1 mph WSW13.0 kmh WSW 11.5 mph18.5 kmh 29.93 in1013.5 mb - 0.00 in0.0 mm 0.00 in0.0 mm
08:30 AM 50.4°F10.2°C 42.4°F5.8°C 74% 6.9 mph WSW11.1 kmh WSW 9.2 mph14.8 kmh 29.93 in1013.5 mb - 0.00 in0.0 mm 0.00 in0.0 mm
08:35 AM 50.7°F10.4°C 42.0°F5.6°C 72% 6.9 mph WSW11.1 kmh WSW 10.4 mph16.7 kmh 29.93 in1013.5 mb - 0.00 in0.0 mm 0.00 in0.0 mm
08:40 AM 51.1°F10.6°C 42.0°F5.6°C 71% 8.1 mph SW13.0 kmh SW 11.5 mph18.5 kmh 29.93 in1013.5 mb - 0.00 in0.0 mm 0.00 in0.0 mm
08:45 AM 51.4°F10.8°C 42.3°F5.7°C 71% 6.9 mph WSW11.1 kmh WSW 10.4 mph16.7 kmh 29.93 in1013.5 mb - 0.00 in0.0 mm 0.00 in0.0 mm
08:50 AM 51.7°F10.9°C 42.2°F5.7°C 70% 5.8 mph WSW9.3 kmh WSW 10.4 mph16.7 kmh 29.93 in1013.5 mb - 0.00 in0.0 mm 0.00 in0.0 mm
08:55 AM 52.1°F11.2°C 42.2°F5.7°C 69% 5.8 mph WSW9.3 kmh WSW 9.2 mph14.8 kmh 29.92 in1013.2 mb - 0.00 in0.0 mm 0.00 in0.0 mm
09:00 AM 52.6°F11.4°C 42.7°F5.9°C 69% 5.8 mph WSW9.3 kmh WSW 8.1 mph13.0 kmh 29.92 in1013.2 mb - 0.00 in0.0 mm 0.00 in0.0 mm
09:05 AM 53.1°F11.7°C 42.4°F5.8°C 67% 5.8 mph WSW9.3 kmh WSW 6.9 mph11.1 kmh 29.91 in1012.9 mb - 0.00 in0.0 mm 0.00 in0.0 mm
09:10 AM 53.5°F11.9°C 42.8°F6.0°C 67% 4.6 mph WSW7.4 kmh WSW 10.4 mph16.7 kmh 29.91 in1012.9 mb - 0.00 in0.0 mm 0.00 in0.0 mm
09:15 AM 53.9°F12.2°C 42.8°F6.0°C 66% 8.1 mph WSW13.0 kmh WSW 11.5 mph18.5 kmh 29.91 in1012.9 mb - 0.00 in0.0 mm 0.00 in0.0 mm
09:20 AM 54.2°F12.3°C 42.7°F5.9°C 65% 5.8 mph WSW9.3 kmh WSW 9.2 mph14.8 kmh 29.91 in1012.9 mb - 0.00 in0.0 mm 0.00 in0.0 mm
09:25 AM 54.6°F12.6°C 42.7°F5.9°C 64% 4.6 mph WSW7.4 kmh WSW 6.9 mph11.1 kmh 29.92 in1013.2 mb - 0.00 in0.0 mm 0.00 in0.0 mm
09:30 AM 55.0°F12.8°C 41.8°F5.4°C 61% 6.9 mph WSW11.1 kmh WSW 11.5 mph18.5 kmh 29.92 in1013.2 mb - 0.00 in0.0 mm 0.00 in0.0 mm
09:35 AM 55.4°F13.0°C 41.3°F5.2°C 59% 6.9 mph WSW11.1 kmh WSW 5.8 mph9.3 kmh 29.92 in1013.2 mb - 0.00 in0.0 mm 0.00 in0.0 mm
09:40 AM 55.9°F13.3°C 41.3°F5.2°C 58% 8.1 mph WSW13.0 kmh WSW 9.2 mph14.8 kmh 29.92 in1013.2 mb - 0.00 in0.0 mm 0.00 in0.0 mm
09:45 AM 56.3°F13.5°C 40.3°F4.6°C 55% 6.9 mph WSW11.1 kmh WSW 9.2 mph14.8 kmh 29.92 in1013.2 mb - 0.00 in0.0 mm 0.00 in0.0 mm
09:50 AM 56.8°F13.8°C 40.3°F4.6°C 54% 5.8 mph NW9.3 kmh NW 5.8 mph9.3 kmh 29.92 in1013.2 mb - 0.00 in0.0 mm 0.00 in0.0 mm
09:55 AM 57.4°F14.1°C 38.9°F3.8°C 50% 5.8 mph W9.3 kmh W 6.9 mph11.1 kmh 29.92 in1013.2 mb - 0.00 in0.0 mm 0.00 in0.0 mm
10:00 AM 58.0°F14.4°C 37.4°F3.0°C 46% 4.6 mph WNW7.4 kmh WNW 5.8 mph9.3 kmh 29.92 in1013.2 mb - 0.00 in0.0 mm 0.00 in0.0 mm
10:05 AM 58.6°F14.8°C 36.2°F2.3°C 43% 4.6 mph WNW7.4 kmh WNW 6.9 mph11.1 kmh 29.92 in1013.2 mb - 0.00 in0.0 mm 0.00 in0.0 mm
10:10 AM 59.3°F15.2°C 35.6°F2.0°C 41% 5.8 mph W9.3 kmh W 8.1 mph13.0 kmh 29.92 in1013.2 mb - 0.00 in0.0 mm 0.00 in0.0 mm
10:15 AM 59.8°F15.4°C 34.7°F1.5°C 39% 8.1 mph W13.0 kmh W 10.4 mph16.7 kmh 29.91 in1012.9 mb - 0.00 in0.0 mm 0.00 in0.0 mm
10:20 AM 60.2°F15.7°C 35.1°F1.7°C 39% 5.8 mph W9.3 kmh W 8.1 mph13.0 kmh 29.91 in1012.9 mb - 0.00 in0.0 mm 0.00 in0.0 mm
10:25 AM 60.4°F15.8°C 35.9°F2.2°C 40% 4.6 mph W7.4 kmh W 11.5 mph18.5 kmh 29.91 in1012.9 mb - 0.00 in0.0 mm 0.00 in0.0 mm
10:30 AM 60.5°F15.8°C 32.7°F0.4°C 35% 6.9 mph WSW11.1 kmh WSW 9.2 mph14.8 kmh 29.90 in1012.5 mb - 0.00 in0.0 mm 0.00 in0.0 mm
10:35 AM 60.8°F16.0°C 31.5°F-0.3°C 33% 5.8 mph WNW9.3 kmh WNW 11.5 mph18.5 kmh 29.90 in1012.5 mb - 0.00 in0.0 mm 0.00 in0.0 mm
10:40 AM 61.1°F16.2°C 31.0°F-0.6°C 32% 5.8 mph W9.3 kmh W 5.8 mph9.3 kmh 29.90 in1012.5 mb - 0.00 in0.0 mm 0.00 in0.0 mm
10:45 AM 61.4°F16.3°C 31.2°F-0.4°C 32% 5.8 mph NW9.3 kmh NW 8.1 mph13.0 kmh 29.90 in1012.5 mb - 0.00 in0.0 mm 0.00 in0.0 mm
10:50 AM 61.8°F16.6°C 28.3°F-2.1°C 28% 6.9 mph NNW11.1 kmh NNW 10.4 mph16.7 kmh 29.90 in1012.5 mb - 0.00 in0.0 mm 0.00 in0.0 mm
10:55 AM 62.2°F16.8°C 25.9°F-3.4°C 25% 6.9 mph NW11.1 kmh NW 9.2 mph14.8 kmh 29.90 in1012.5 mb - 0.00 in0.0 mm 0.00 in0.0 mm
11:00 AM 62.5°F16.9°C 25.1°F-3.8°C 24% 6.9 mph NW11.1 kmh NW 10.4 mph16.7 kmh 29.90 in1012.5 mb - 0.00 in0.0 mm 0.00 in0.0 mm
11:05 AM 62.9°F17.2°C 24.5°F-4.2°C 23% 9.2 mph NNW14.8 kmh NNW 10.4 mph16.7 kmh 29.90 in1012.5 mb - 0.00 in0.0 mm 0.00 in0.0 mm
11:10 AM 63.1°F17.3°C 24.7°F-4.1°C 23% 10.4 mph NW16.7 kmh NW 12.7 mph20.4 kmh 29.90 in1012.5 mb - 0.00 in0.0 mm 0.00 in0.0 mm
11:15 AM 63.2°F17.3°C 24.7°F-4.1°C 23% 8.1 mph NW13.0 kmh NW 10.4 mph16.7 kmh 29.89 in1012.2 mb - 0.00 in0.0 mm 0.00 in0.0 mm
11:20 AM 63.4°F17.4°C 22.7°F-5.2°C 21% 11.5 mph NNW18.5 kmh NNW 16.1 mph25.9 kmh 29.90 in1012.5 mb - 0.00 in0.0 mm 0.00 in0.0 mm
11:25 AM 63.3°F17.4°C 22.7°F-5.2°C 21% 9.2 mph NW14.8 kmh NW 11.5 mph18.5 kmh 29.89 in1012.2 mb - 0.00 in0.0 mm 0.00 in0.0 mm
11:30 AM 63.2°F17.3°C 21.4°F-5.9°C 20% 11.5 mph NNW18.5 kmh NNW 12.7 mph20.4 kmh 29.89 in1012.2 mb - 0.00 in0.0 mm 0.00 in0.0 mm
11:35 AM 63.3°F17.4°C 22.7°F-5.2°C 21% 8.1 mph NW13.0 kmh NW 11.5 mph18.5 kmh 29.89 in1012.2 mb - 0.00 in0.0 mm 0.00 in0.0 mm
11:40 AM 63.5°F17.5°C 22.8°F-5.1°C 21% 8.1 mph NW13.0 kmh NW 11.5 mph18.5 kmh 29.89 in1012.2 mb - 0.00 in0.0 mm 0.00 in0.0 mm
11:45 AM 63.4°F17.4°C 21.6°F-5.8°C 20% 11.5 mph NW18.5 kmh NW 13.8 mph22.2 kmh 29.89 in1012.2 mb - 0.00 in0.0 mm 0.00 in0.0 mm
11:50 AM 63.0°F17.2°C 21.2°F-6.0°C 20% 13.8 mph N22.2 kmh N 20.7 mph33.3 kmh 29.89 in1012.2 mb - 0.00 in0.0 mm 0.00 in0.0 mm
11:55 AM 62.5°F16.9°C 22.0°F-5.6°C 21% 9.2 mph NW14.8 kmh NW 13.8 mph22.2 kmh 29.89 in1012.2 mb - 0.00 in0.0 mm 0.00 in0.0 mm
12:00 PM 62.2°F16.8°C 20.6°F-6.3°C 20% 11.5 mph N18.5 kmh N 13.8 mph22.2 kmh 29.89 in1012.2 mb - 0.00 in0.0 mm 0.00 in0.0 mm
12:05 PM 62.0°F16.7°C 21.6°F-5.8°C 21% 10.4 mph NNW16.7 kmh NNW 12.7 mph20.4 kmh 29.89 in1012.2 mb - 0.00 in0.0 mm 0.00 in0.0 mm
12:10 PM 61.9°F16.6°C 20.3°F-6.5°C 20% 10.4 mph N16.7 kmh N 13.8 mph22.2 kmh 29.89 in1012.2 mb - 0.00 in0.0 mm 0.00 in0.0 mm
12:15 PM 61.8°F16.6°C 22.5°F-5.3°C 22% 6.9 mph NNW11.1 kmh NNW 8.1 mph13.0 kmh 29.89 in1012.2 mb - 0.00 in0.0 mm 0.00 in0.0 mm
12:20 PM 61.7°F16.5°C 22.4°F-5.3°C 22% 8.1 mph NNW13.0 kmh NNW 13.8 mph22.2 kmh 29.89 in1012.2 mb - 0.00 in0.0 mm 0.00 in0.0 mm
12:25 PM 61.6°F16.4°C 20.1°F-6.6°C 20% 8.1 mph NW13.0 kmh NW 10.4 mph16.7 kmh 29.89 in1012.2 mb - 0.00 in0.0 mm 0.00 in0.0 mm
12:30 PM 61.6°F16.4°C 20.1°F-6.6°C 20% 9.2 mph NW14.8 kmh NW 11.5 mph18.5 kmh 29.89 in1012.2 mb - 0.00 in0.0 mm 0.00 in0.0 mm
12:35 PM 61.6°F16.4°C 21.2°F-6.0°C 21% 6.9 mph NW11.1 kmh NW 9.2 mph14.8 kmh 29.89 in1012.2 mb - 0.00 in0.0 mm 0.00 in0.0 mm
12:40 PM 61.6°F16.4°C 21.2°F-6.0°C 21% 8.1 mph NW13.0 kmh NW 13.8 mph22.2 kmh 29.88 in1011.9 mb - 0.00 in0.0 mm 0.00 in0.0 mm
12:45 PM 61.5°F16.4°C 20.0°F-6.7°C 20% 11.5 mph NW18.5 kmh NW 15.0 mph24.1 kmh 29.89 in1012.2 mb - 0.00 in0.0 mm 0.00 in0.0 mm
12:50 PM 61.4°F16.3°C 20.0°F-6.7°C 20% 9.2 mph NW14.8 kmh NW 11.5 mph18.5 kmh 29.88 in1011.9 mb - 0.00 in0.0 mm 0.00 in0.0 mm
12:55 PM 61.4°F16.3°C 19.9°F-6.7°C 20% 9.2 mph NW14.8 kmh NW 11.5 mph18.5 kmh 29.89 in1012.2 mb - 0.00 in0.0 mm 0.00 in0.0 mm
01:00 PM 61.4°F16.3°C 19.9°F-6.7°C 20% 8.1 mph NW13.0 kmh NW 11.5 mph18.5 kmh 29.88 in1011.9 mb - 0.00 in0.0 mm 0.00 in0.0 mm
01:05 PM 61.4°F16.3°C 21.1°F-6.1°C 21% 10.4 mph NW16.7 kmh NW 15.0 mph24.1 kmh 29.88 in1011.9 mb - 0.00 in0.0 mm 0.00 in0.0 mm
01:10 PM 61.5°F16.4°C 20.0°F-6.7°C 20% 11.5 mph NW18.5 kmh NW 17.3 mph27.8 kmh 29.88 in1011.9 mb - 0.00 in0.0 mm 0.00 in0.0 mm
01:15 PM 61.5°F16.4°C 18.8°F-7.3°C 19% 11.5 mph NW18.5 kmh NW 15.0 mph24.1 kmh 29.88 in1011.9 mb - 0.00 in0.0 mm 0.00 in0.0 mm
01:20 PM 61.5°F16.4°C 18.8°F-7.3°C 19% 12.7 mph NW20.4 kmh NW 20.7 mph33.3 kmh 29.88 in1011.9 mb - 0.00 in0.0 mm 0.00 in0.0 mm
01:25 PM 61.2°F16.2°C 18.5°F-7.5°C 19% 13.8 mph NW22.2 kmh NW 18.4 mph29.6 kmh 29.88 in1011.9 mb - 0.00 in0.0 mm 0.00 in0.0 mm
01:30 PM 60.9°F16.1°C 19.5°F-6.9°C 20% 16.1 mph WNW25.9 kmh WNW 19.6 mph31.5 kmh 29.88 in1011.9 mb - 0.00 in0.0 mm 0.00 in0.0 mm
01:35 PM 60.6°F15.9°C 20.4°F-6.4°C 21% 6.9 mph NW11.1 kmh NW 11.5 mph18.5 kmh 29.88 in1011.9 mb - 0.00 in0.0 mm 0.00 in0.0 mm
01:40 PM 60.6°F15.9°C 19.3°F-7.1°C 20% 11.5 mph NW18.5 kmh NW 19.6 mph31.5 kmh 29.88 in1011.9 mb - 0.00 in0.0 mm 0.00 in0.0 mm
01:45 PM 60.2°F15.7°C 22.3°F-5.4°C 23% 16.1 mph N25.9 kmh N 19.6 mph31.5 kmh 29.88 in1011.9 mb - 0.00 in0.0 mm 0.00 in0.0 mm
01:50 PM 59.6°F15.3°C 23.7°F-4.6°C 25% 13.8 mph NNW22.2 kmh NNW 12.7 mph20.4 kmh 29.88 in1011.9 mb - 0.00 in0.0 mm 0.00 in0.0 mm
01:55 PM 59.2°F15.1°C 24.2°F-4.3°C 26% 16.1 mph N25.9 kmh N 19.6 mph31.5 kmh 29.88 in1011.9 mb - 0.00 in0.0 mm 0.00 in0.0 mm
02:00 PM 58.6°F14.8°C 24.6°F-4.1°C 27% 15.0 mph N24.1 kmh N 18.4 mph29.6 kmh 29.87 in1011.5 mb - 0.00 in0.0 mm 0.00 in0.0 mm
02:05 PM 58.4°F14.7°C 25.4°F-3.7°C 28% 10.4 mph NNW16.7 kmh NNW 15.0 mph24.1 kmh 29.87 in1011.5 mb - 0.00 in0.0 mm 0.00 in0.0 mm
02:10 PM 58.4°F14.7°C 24.5°F-4.2°C 27% 13.8 mph N22.2 kmh N 16.1 mph25.9 kmh 29.87 in1011.5 mb - 0.00 in0.0 mm 0.00 in0.0 mm
02:15 PM 58.6°F14.8°C 25.5°F-3.6°C 28% 13.8 mph N22.2 kmh N 16.1 mph25.9 kmh 29.87 in1011.5 mb - 0.00 in0.0 mm 0.00 in0.0 mm
02:20 PM 58.5°F14.7°C 24.6°F-4.1°C 27% 16.1 mph N25.9 kmh N 17.3 mph27.8 kmh 29.87 in1011.5 mb - 0.00 in0.0 mm 0.00 in0.0 mm
02:25 PM 58.5°F14.7°C 25.5°F-3.6°C 28% 13.8 mph N22.2 kmh N 19.6 mph31.5 kmh 29.88 in1011.9 mb - 0.00 in0.0 mm 0.00 in0.0 mm
02:30 PM 58.5°F14.7°C 25.5°F-3.6°C 28% 13.8 mph NNW22.2 kmh NNW 24.2 mph38.9 kmh 29.88 in1011.9 mb - 0.00 in0.0 mm 0.00 in0.0 mm
02:35 PM 58.4°F14.7°C 21.7°F-5.7°C 24% 18.4 mph N29.6 kmh N 20.7 mph33.3 kmh 29.88 in1011.9 mb - 0.00 in0.0 mm 0.00 in0.0 mm
02:40 PM 58.2°F14.6°C 21.5°F-5.8°C 24% 17.3 mph N27.8 kmh N 28.8 mph46.3 kmh 29.88 in1011.9 mb - 0.00 in0.0 mm 0.00 in0.0 mm
02:45 PM 57.8°F14.3°C 20.2°F-6.6°C 23% 18.4 mph N29.6 kmh N 21.9 mph35.2 kmh 29.88 in1011.9 mb - 0.00 in0.0 mm 0.00 in0.0 mm
02:50 PM 57.7°F14.3°C 20.1°F-6.6°C 23% 15.0 mph N24.1 kmh N 19.6 mph31.5 kmh 29.89 in1012.2 mb - 0.00 in0.0 mm 0.00 in0.0 mm
02:55 PM 57.7°F14.3°C 20.1°F-6.6°C 23% 15.0 mph NNW24.1 kmh NNW 19.6 mph31.5 kmh 29.89 in1012.2 mb - 0.00 in0.0 mm 0.00 in0.0 mm
03:00 PM 57.7°F14.3°C 21.1°F-6.1°C 24% 11.5 mph N18.5 kmh N 21.9 mph35.2 kmh 29.89 in1012.2 mb - 0.00 in0.0 mm 0.00 in0.0 mm
03:05 PM 57.7°F14.3°C 20.1°F-6.6°C 23% 15.0 mph N24.1 kmh N 25.3 mph40.7 kmh 29.89 in1012.2 mb - 0.00 in0.0 mm 0.00 in0.0 mm
03:10 PM 57.8°F14.3°C 20.2°F-6.6°C 23% 13.8 mph NNW22.2 kmh NNW 17.3 mph27.8 kmh 29.89 in1012.2 mb - 0.00 in0.0 mm 0.00 in0.0 mm
03:15 PM 58.4°F14.7°C 20.7°F-6.3°C 23% 17.3 mph NNW27.8 kmh NNW 23.0 mph37.0 kmh 29.90 in1012.5 mb - 0.00 in0.0 mm 0.00 in0.0 mm
03:20 PM 58.6°F14.8°C 20.9°F-6.2°C 23% 13.8 mph NNW22.2 kmh NNW 17.3 mph27.8 kmh 29.90 in1012.5 mb - 0.00 in0.0 mm 0.00 in0.0 mm
03:25 PM 58.6°F14.8°C 17.6°F-8.0°C 20% 20.7 mph NW33.3 kmh NW 33.4 mph53.8 kmh 29.90 in1012.5 mb - 0.00 in0.0 mm 0.00 in0.0 mm
03:30 PM 58.1°F14.5°C 16.0°F-8.9°C 19% 19.6 mph NW31.5 kmh NW 20.7 mph33.3 kmh 29.91 in1012.9 mb - 0.00 in0.0 mm 0.00 in0.0 mm
03:35 PM 57.6°F14.2°C 16.8°F-8.4°C 20% 23.0 mph NW37.0 kmh NW 26.5 mph42.6 kmh 29.91 in1012.9 mb - 0.00 in0.0 mm 0.00 in0.0 mm
03:40 PM 57.3°F14.1°C 18.7°F-7.4°C 22% 13.8 mph NNW22.2 kmh NNW 18.4 mph29.6 kmh 29.91 in1012.9 mb - 0.00 in0.0 mm 0.00 in0.0 mm
03:45 PM 57.0°F13.9°C 19.5°F-6.9°C 23% 19.6 mph NW31.5 kmh NW 24.2 mph38.9 kmh 29.92 in1013.2 mb - 0.00 in0.0 mm 0.00 in0.0 mm
03:50 PM 56.5°F13.6°C 20.1°F-6.6°C 24% 19.6 mph NW31.5 kmh NW 31.1 mph50.1 kmh 29.92 in1013.2 mb - 0.00 in0.0 mm 0.00 in0.0 mm
03:55 PM 56.1°F13.4°C 20.7°F-6.3°C 25% 18.4 mph NW29.6 kmh NW 25.3 mph40.7 kmh 29.93 in1013.5 mb - 0.00 in0.0 mm 0.00 in0.0 mm
04:00 PM 55.9°F13.3°C 19.6°F-6.9°C 24% 18.4 mph NW29.6 kmh NW 24.2 mph38.9 kmh 29.93 in1013.5 mb - 0.00 in0.0 mm 0.00 in0.0 mm
04:05 PM 55.9°F13.3°C 18.6°F-7.4°C 23% 12.7 mph NW20.4 kmh NW 23.0 mph37.0 kmh 29.94 in1013.9 mb - 0.00 in0.0 mm 0.00 in0.0 mm
04:10 PM 55.8°F13.2°C 19.5°F-6.9°C 24% 17.3 mph NW27.8 kmh NW 20.7 mph33.3 kmh 29.94 in1013.9 mb - 0.00 in0.0 mm 0.00 in0.0 mm
04:15 PM 55.7°F13.2°C 19.4°F-7.0°C 24% 13.8 mph NW22.2 kmh NW 26.5 mph42.6 kmh 29.94 in1013.9 mb - 0.00 in0.0 mm 0.00 in0.0 mm
04:20 PM 55.5°F13.1°C 18.2°F-7.7°C 23% 17.3 mph NW27.8 kmh NW 21.9 mph35.2 kmh 29.94 in1013.9 mb - 0.00 in0.0 mm 0.00 in0.0 mm
04:25 PM 55.3°F12.9°C 19.0°F-7.2°C 24% 11.5 mph NW18.5 kmh NW 19.6 mph31.5 kmh 29.94 in1013.9 mb - 0.00 in0.0 mm 0.00 in0.0 mm
04:30 PM 55.1°F12.8°C 18.9°F-7.3°C 24% 15.0 mph NW24.1 kmh NW 26.5 mph42.6 kmh 29.94 in1013.9 mb - 0.00 in0.0 mm 0.00 in0.0 mm
04:35 PM 55.0°F12.8°C 16.8°F-8.4°C 22% 18.4 mph NW29.6 kmh NW 26.5 mph42.6 kmh 29.94 in1013.9 mb - 0.00 in0.0 mm 0.00 in0.0 mm
04:40 PM 55.0°F12.8°C 15.7°F-9.1°C 21% 20.7 mph NW33.3 kmh NW 32.2 mph51.8 kmh 29.94 in1013.9 mb - 0.00 in0.0 mm 0.00 in0.0 mm
04:45 PM 54.8°F12.7°C 16.7°F-8.5°C 22% 15.0 mph NNW24.1 kmh NNW 20.7 mph33.3 kmh 29.94 in1013.9 mb - 0.00 in0.0 mm 0.00 in0.0 mm
04:50 PM 54.8°F12.7°C 16.7°F-8.5°C 22% 18.4 mph NW29.6 kmh NW 21.9 mph35.2 kmh 29.94 in1013.9 mb - 0.00 in0.0 mm 0.00 in0.0 mm
04:55 PM 54.9°F12.7°C 14.5°F-9.7°C 20% 25.3 mph NW40.7 kmh NW 36.8 mph59.2 kmh 29.95 in1014.2 mb - 0.00 in0.0 mm 0.00 in0.0 mm
05:00 PM 54.6°F12.6°C 13.1°F-10.5°C 19% 24.2 mph NNW38.9 kmh NNW 34.5 mph55.5 kmh 29.95 in1014.2 mb - 0.00 in0.0 mm 0.00 in0.0 mm
05:05 PM 54.3°F12.4°C 14.0°F-10.0°C 20% 26.5 mph NW42.6 kmh NW 38.0 mph61.2 kmh 29.96 in1014.6 mb - 0.00 in0.0 mm 0.00 in0.0 mm
05:10 PM 53.9°F12.2°C 15.9°F-8.9°C 22% 26.5 mph NW42.6 kmh NW 36.8 mph59.2 kmh 29.96 in1014.6 mb - 0.00 in0.0 mm 0.00 in0.0 mm
05:15 PM 53.7°F12.1°C 15.7°F-9.1°C 22% 23.0 mph NW37.0 kmh NW 35.7 mph57.5 kmh 29.97 in1014.9 mb - 0.00 in0.0 mm 0.00 in0.0 mm
05:20 PM 53.6°F12.0°C 12.2°F-11.0°C 19% 26.5 mph NW42.6 kmh NW 33.4 mph53.8 kmh 29.97 in1014.9 mb - 0.00 in0.0 mm 0.00 in0.0 mm
05:25 PM 53.4°F11.9°C 12.1°F-11.1°C 19% 25.3 mph NW40.7 kmh NW 34.5 mph55.5 kmh 29.97 in1014.9 mb - 0.00 in0.0 mm 0.00 in0.0 mm
05:30 PM 53.3°F11.8°C 13.2°F-10.4°C 20% 26.5 mph NW42.6 kmh NW 34.5 mph55.5 kmh 29.97 in1014.9 mb - 0.00 in0.0 mm 0.00 in0.0 mm
05:35 PM 53.2°F11.8°C 10.7°F-11.8°C 18% 23.0 mph NW37.0 kmh NW 33.4 mph53.8 kmh 29.98 in1015.2 mb - 0.00 in0.0 mm 0.00 in0.0 mm
05:40 PM 53.2°F11.8°C 10.7°F-11.8°C 18% 17.3 mph NW27.8 kmh NW 19.6 mph31.5 kmh 29.98 in1015.2 mb - 0.00 in0.0 mm 0.00 in0.0 mm
05:45 PM 53.1°F11.7°C 10.6°F-11.9°C 18% 17.3 mph NW27.8 kmh NW 27.6 mph44.4 kmh 29.98 in1015.2 mb - 0.00 in0.0 mm 0.00 in0.0 mm
05:50 PM 53.0°F11.7°C 10.5°F-11.9°C 18% 19.6 mph NW31.5 kmh NW 20.7 mph33.3 kmh 29.99 in1015.6 mb - 0.00 in0.0 mm 0.00 in0.0 mm
06:05 PM 52.9°F11.6°C 11.7°F-11.3°C 19% 17.3 mph NW27.8 kmh NW 28.8 mph46.3 kmh 29.98 in1015.2 mb - 0.00 in0.0 mm 0.00 in0.0 mm
06:10 PM 51.5°F10.8°C 14.9°F-9.5°C 23% 16.1 mph NW25.9 kmh NW 23.0 mph37.0 kmh 30.02 in1016.6 mb - 0.00 in0.0 mm 0.00 in0.0 mm
06:15 PM 51.2°F10.7°C 14.6°F-9.7°C 23% 13.8 mph NW22.2 kmh NW 24.2 mph38.9 kmh 30.02 in1016.6 mb - 0.00 in0.0 mm 0.00 in0.0 mm
06:20 PM 51.0°F10.6°C 15.4°F-9.2°C 24% 18.4 mph NW29.6 kmh NW 23.0 mph37.0 kmh 30.03 in1016.9 mb - 0.00 in0.0 mm 0.00 in0.0 mm
06:25 PM 50.8°F10.4°C 15.2°F-9.3°C 24% 16.1 mph NW25.9 kmh NW 20.7 mph33.3 kmh 30.03 in1016.9 mb - 0.00 in0.0 mm 0.00 in0.0 mm
06:30 PM 50.6°F10.3°C 15.1°F-9.4°C 24% 18.4 mph NW29.6 kmh NW 28.8 mph46.3 kmh 30.04 in1017.3 mb - 0.00 in0.0 mm 0.00 in0.0 mm
06:35 PM 50.4°F10.2°C 14.9°F-9.5°C 24% 17.3 mph NW27.8 kmh NW 23.0 mph37.0 kmh 30.04 in1017.3 mb - 0.00 in0.0 mm 0.00 in0.0 mm
06:40 PM 50.3°F10.2°C 14.8°F-9.6°C 24% 13.8 mph NW22.2 kmh NW 13.8 mph22.2 kmh 30.05 in1017.6 mb - 0.00 in0.0 mm 0.00 in0.0 mm
06:45 PM 50.1°F10.1°C 14.7°F-9.6°C 24% 15.0 mph NW24.1 kmh NW 18.4 mph29.6 kmh 30.05 in1017.6 mb - 0.00 in0.0 mm 0.00 in0.0 mm
06:50 PM 49.9°F9.9°C 15.4°F-9.2°C 25% 11.5 mph NW18.5 kmh NW 13.8 mph22.2 kmh 30.06 in1017.9 mb - 0.00 in0.0 mm 0.00 in0.0 mm
06:55 PM 49.7°F9.8°C 15.2°F-9.3°C 25% 12.7 mph NW20.4 kmh NW 17.3 mph27.8 kmh 30.06 in1017.9 mb - 0.00 in0.0 mm 0.00 in0.0 mm
07:00 PM 49.5°F9.7°C 16.0°F-8.9°C 26% 13.8 mph NW22.2 kmh NW 21.9 mph35.2 kmh 30.07 in1018.3 mb - 0.00 in0.0 mm 0.00 in0.0 mm
07:05 PM 49.3°F9.6°C 15.8°F-9.0°C 26% 13.8 mph NW22.2 kmh NW 18.4 mph29.6 kmh 30.07 in1018.3 mb - 0.00 in0.0 mm 0.00 in0.0 mm
07:10 PM 49.1°F9.5°C 16.5°F-8.6°C 27% 8.1 mph NW13.0 kmh NW 18.4 mph29.6 kmh 30.07 in1018.3 mb - 0.00 in0.0 mm 0.00 in0.0 mm
07:15 PM 49.0°F9.4°C 16.4°F-8.7°C 27% 12.7 mph NW20.4 kmh NW 16.1 mph25.9 kmh 30.07 in1018.3 mb - 0.00 in0.0 mm 0.00 in0.0 mm
07:20 PM 48.8°F9.3°C 16.3°F-8.7°C 27% 6.9 mph NW11.1 kmh NW 11.5 mph18.5 kmh 30.08 in1018.6 mb - 0.00 in0.0 mm 0.00 in0.0 mm
07:25 PM 48.7°F9.3°C 17.0°F-8.3°C 28% 10.4 mph NW16.7 kmh NW 18.4 mph29.6 kmh 30.08 in1018.6 mb - 0.00 in0.0 mm 0.00 in0.0 mm
07:30 PM 48.6°F9.2°C 16.9°F-8.4°C 28% 13.8 mph NW22.2 kmh NW 19.6 mph31.5 kmh 30.08 in1018.6 mb - 0.00 in0.0 mm 0.00 in0.0 mm
07:35 PM 48.6°F9.2°C 16.9°F-8.4°C 28% 13.8 mph NW22.2 kmh NW 19.6 mph31.5 kmh 30.08 in1018.6 mb - 0.00 in0.0 mm 0.00 in0.0 mm
07:40 PM 48.5°F9.2°C 16.8°F-8.4°C 28% 11.5 mph NW18.5 kmh NW 24.2 mph38.9 kmh 30.09 in1019.0 mb - 0.00 in0.0 mm 0.00 in0.0 mm
07:45 PM 48.3°F9.1°C 17.5°F-8.1°C 29% 9.2 mph NW14.8 kmh NW 11.5 mph18.5 kmh 30.09 in1019.0 mb - 0.00 in0.0 mm 0.00 in0.0 mm
07:50 PM 48.2°F9.0°C 17.4°F-8.1°C 29% 11.5 mph NW18.5 kmh NW 17.3 mph27.8 kmh 30.09 in1019.0 mb - 0.00 in0.0 mm 0.00 in0.0 mm
07:55 PM 48.2°F9.0°C 17.4°F-8.1°C 29% 10.4 mph NW16.7 kmh NW 17.3 mph27.8 kmh 30.09 in1019.0 mb - 0.00 in0.0 mm 0.00 in0.0 mm
08:00 PM 48.1°F8.9°C 17.3°F-8.2°C 29% 11.5 mph NW18.5 kmh NW 12.7 mph20.4 kmh 30.10 in1019.3 mb - 0.00 in0.0 mm 0.00 in0.0 mm
08:05 PM 48.0°F8.9°C 17.2°F-8.2°C 29% 15.0 mph NW24.1 kmh NW 19.6 mph31.5 kmh 30.10 in1019.3 mb - 0.00 in0.0 mm 0.00 in0.0 mm
08:10 PM 47.9°F8.8°C 17.9°F-7.8°C 30% 9.2 mph NW14.8 kmh NW 18.4 mph29.6 kmh 30.11 in1019.6 mb - 0.00 in0.0 mm 0.00 in0.0 mm
08:15 PM 47.9°F8.8°C 17.9°F-7.8°C 30% 10.4 mph NW16.7 kmh NW 12.7 mph20.4 kmh 30.11 in1019.6 mb - 0.00 in0.0 mm 0.00 in0.0 mm
08:20 PM 47.9°F8.8°C 17.9°F-7.8°C 30% 11.5 mph NW18.5 kmh NW 18.4 mph29.6 kmh 30.12 in1020.0 mb - 0.00 in0.0 mm 0.00 in0.0 mm
08:25 PM 47.8°F8.8°C 17.0°F-8.3°C 29% 10.4 mph NW16.7 kmh NW 18.4 mph29.6 kmh 30.12 in1020.0 mb - 0.00 in0.0 mm 0.00 in0.0 mm
08:30 PM 47.8°F8.8°C 17.8°F-7.9°C 30% 10.4 mph WNW16.7 kmh WNW 21.9 mph35.2 kmh 30.13 in1020.3 mb - 0.00 in0.0 mm 0.00 in0.0 mm
08:35 PM 47.8°F8.8°C 17.0°F-8.3°C 29% 10.4 mph NW16.7 kmh NW 17.3 mph27.8 kmh 30.13 in1020.3 mb - 0.00 in0.0 mm 0.00 in0.0 mm
08:40 PM 47.8°F8.8°C 17.8°F-7.9°C 30% 9.2 mph NW14.8 kmh NW 13.8 mph22.2 kmh 30.13 in1020.3 mb - 0.00 in0.0 mm 0.00 in0.0 mm
08:45 PM 47.8°F8.8°C 17.8°F-7.9°C 30% 9.2 mph NW14.8 kmh NW 18.4 mph29.6 kmh 30.13 in1020.3 mb - 0.00 in0.0 mm 0.00 in0.0 mm
08:50 PM 47.8°F8.8°C 17.8°F-7.9°C 30% 10.4 mph NW16.7 kmh NW 11.5 mph18.5 kmh 30.13 in1020.3 mb - 0.00 in0.0 mm 0.00 in0.0 mm
08:55 PM 47.7°F8.7°C 17.7°F-7.9°C 30% 8.1 mph NW13.0 kmh NW 10.4 mph16.7 kmh 30.13 in1020.3 mb - 0.00 in0.0 mm 0.00 in0.0 mm
09:00 PM 47.7°F8.7°C 17.7°F-7.9°C 30% 9.2 mph NW14.8 kmh NW 18.4 mph29.6 kmh 30.14 in1020.7 mb - 0.00 in0.0 mm 0.00 in0.0 mm
09:05 PM 47.7°F8.7°C 17.7°F-7.9°C 30% 10.4 mph NW16.7 kmh NW 11.5 mph18.5 kmh 30.14 in1020.7 mb - 0.00 in0.0 mm 0.00 in0.0 mm
09:10 PM 47.7°F8.7°C 17.7°F-7.9°C 30% 10.4 mph NW16.7 kmh NW 18.4 mph29.6 kmh 30.14 in1020.7 mb - 0.00 in0.0 mm 0.00 in0.0 mm
09:15 PM 47.7°F8.7°C 17.7°F-7.9°C 30% 12.7 mph NW20.4 kmh NW 17.3 mph27.8 kmh 30.14 in1020.7 mb - 0.00 in0.0 mm 0.00 in0.0 mm
09:20 PM 47.8°F8.8°C 17.8°F-7.9°C 30% 15.0 mph NW24.1 kmh NW 19.6 mph31.5 kmh 30.15 in1021.0 mb - 0.00 in0.0 mm 0.00 in0.0 mm
09:25 PM 47.9°F8.8°C 17.9°F-7.8°C 30% 16.1 mph NW25.9 kmh NW 21.9 mph35.2 kmh 30.15 in1021.0 mb - 0.00 in0.0 mm 0.00 in0.0 mm
09:30 PM 48.0°F8.9°C 18.0°F-7.8°C 30% 15.0 mph NW24.1 kmh NW 17.3 mph27.8 kmh 30.15 in1021.0 mb - 0.00 in0.0 mm 0.00 in0.0 mm
09:35 PM 47.9°F8.8°C 17.9°F-7.8°C 30% 10.4 mph NW16.7 kmh NW 15.0 mph24.1 kmh 30.15 in1021.0 mb - 0.00 in0.0 mm 0.00 in0.0 mm
09:40 PM 47.7°F8.7°C 17.7°F-7.9°C 30% 11.5 mph NW18.5 kmh NW 21.9 mph35.2 kmh 30.15 in1021.0 mb - 0.00 in0.0 mm 0.00 in0.0 mm
09:45 PM 47.8°F8.8°C 17.8°F-7.9°C 30% 9.2 mph NW14.8 kmh NW 13.8 mph22.2 kmh 30.16 in1021.3 mb - 0.00 in0.0 mm 0.00 in0.0 mm
09:50 PM 47.8°F8.8°C 17.8°F-7.9°C 30% 6.9 mph NW11.1 kmh NW 10.4 mph16.7 kmh 30.17 in1021.7 mb - 0.00 in0.0 mm 0.00 in0.0 mm
09:55 PM 47.7°F8.7°C 18.5°F-7.5°C 31% 5.8 mph NW9.3 kmh NW 9.2 mph14.8 kmh 30.17 in1021.7 mb - 0.00 in0.0 mm 0.00 in0.0 mm
10:00 PM 47.5°F8.6°C 18.3°F-7.6°C 31% 9.2 mph NW14.8 kmh NW 12.7 mph20.4 kmh 30.17 in1021.7 mb - 0.00 in0.0 mm 0.00 in0.0 mm
10:05 PM 47.3°F8.5°C 18.9°F-7.3°C 32% 6.9 mph NW11.1 kmh NW 11.5 mph18.5 kmh 30.16 in1021.3 mb - 0.00 in0.0 mm 0.00 in0.0 mm
10:10 PM 47.2°F8.4°C 18.8°F-7.3°C 32% 9.2 mph NW14.8 kmh NW 16.1 mph25.9 kmh 30.16 in1021.3 mb - 0.00 in0.0 mm 0.00 in0.0 mm
10:15 PM 47.1°F8.4°C 18.7°F-7.4°C 32% 10.4 mph NW16.7 kmh NW 11.5 mph18.5 kmh 30.17 in1021.7 mb - 0.00 in0.0 mm 0.00 in0.0 mm
10:20 PM 47.0°F8.3°C 18.6°F-7.4°C 32% 8.1 mph NW13.0 kmh NW 11.5 mph18.5 kmh 30.17 in1021.7 mb - 0.00 in0.0 mm 0.00 in0.0 mm
10:25 PM 47.0°F8.3°C 19.3°F-7.1°C 33% 11.5 mph NW18.5 kmh NW 19.6 mph31.5 kmh 30.17 in1021.7 mb - 0.00 in0.0 mm 0.00 in0.0 mm
10:30 PM 47.1°F8.4°C 19.4°F-7.0°C 33% 10.4 mph NW16.7 kmh NW 15.0 mph24.1 kmh 30.18 in1022.0 mb - 0.00 in0.0 mm 0.00 in0.0 mm
10:35 PM 47.2°F8.4°C 19.5°F-6.9°C 33% 8.1 mph NW13.0 kmh NW 16.1 mph25.9 kmh 30.18 in1022.0 mb - 0.00 in0.0 mm 0.00 in0.0 mm
10:40 PM 47.2°F8.4°C 19.5°F-6.9°C 33% 11.5 mph NW18.5 kmh NW 18.4 mph29.6 kmh 30.18 in1022.0 mb - 0.00 in0.0 mm 0.00 in0.0 mm
10:45 PM 47.2°F8.4°C 20.2°F-6.6°C 34% 12.7 mph NW20.4 kmh NW 17.3 mph27.8 kmh 30.18 in1022.0 mb - 0.00 in0.0 mm 0.00 in0.0 mm
10:50 PM 47.1°F8.4°C 20.1°F-6.6°C 34% 9.2 mph NW14.8 kmh NW 13.8 mph22.2 kmh 30.18 in1022.0 mb - 0.00 in0.0 mm 0.00 in0.0 mm
10:55 PM 47.0°F8.3°C 20.0°F-6.7°C 34% 10.4 mph NW16.7 kmh NW 11.5 mph18.5 kmh 30.19 in1022.4 mb - 0.00 in0.0 mm 0.00 in0.0 mm
11:00 PM 46.8°F8.2°C 20.6°F-6.3°C 35% 8.1 mph NW13.0 kmh NW 15.0 mph24.1 kmh 30.18 in1022.0 mb - 0.00 in0.0 mm 0.00 in0.0 mm
11:05 PM 46.7°F8.2°C 20.5°F-6.4°C 35% 8.1 mph NW13.0 kmh NW 13.8 mph22.2 kmh 30.19 in1022.4 mb - 0.00 in0.0 mm 0.00 in0.0 mm
11:10 PM 46.7°F8.2°C 21.1°F-6.1°C 36% 8.1 mph NW13.0 kmh NW 15.0 mph24.1 kmh 30.19 in1022.4 mb - 0.00 in0.0 mm 0.00 in0.0 mm
11:15 PM 46.6°F8.1°C 21.0°F-6.1°C 36% 9.2 mph NW14.8 kmh NW 17.3 mph27.8 kmh 30.20 in1022.7 mb - 0.00 in0.0 mm 0.00 in0.0 mm
11:20 PM 46.5°F8.1°C 21.6°F-5.8°C 37% 12.7 mph NW20.4 kmh NW 16.1 mph25.9 kmh 30.20 in1022.7 mb - 0.00 in0.0 mm 0.00 in0.0 mm
11:25 PM 46.5°F8.1°C 21.6°F-5.8°C 37% 6.9 mph NW11.1 kmh NW 8.1 mph13.0 kmh 30.20 in1022.7 mb - 0.00 in0.0 mm 0.00 in0.0 mm
11:30 PM 46.5°F8.1°C 21.6°F-5.8°C 37% 10.4 mph NW16.7 kmh NW 12.7 mph20.4 kmh 30.20 in1022.7 mb - 0.00 in0.0 mm 0.00 in0.0 mm
11:35 PM 46.5°F8.1°C 21.6°F-5.8°C 37% 5.8 mph NW9.3 kmh NW 10.4 mph16.7 kmh 30.20 in1022.7 mb - 0.00 in0.0 mm 0.00 in0.0 mm
11:40 PM 46.4°F8.0°C 22.1°F-5.5°C 38% 8.1 mph WNW13.0 kmh WNW 11.5 mph18.5 kmh 30.20 in1022.7 mb - 0.00 in0.0 mm 0.00 in0.0 mm
11:45 PM 46.2°F7.9°C 22.0°F-5.6°C 38% 8.1 mph NW13.0 kmh NW 10.4 mph16.7 kmh 30.20 in1022.7 mb - 0.00 in0.0 mm 0.00 in0.0 mm
11:50 PM 46.2°F7.9°C 22.0°F-5.6°C 38% 6.9 mph NW11.1 kmh NW 10.4 mph16.7 kmh 30.20 in1022.7 mb - 0.00 in0.0 mm 0.00 in0.0 mm
11:55 PM 46.1°F7.8°C 21.9°F-5.6°C 38% 8.1 mph NW13.0 kmh NW 12.7 mph20.4 kmh 30.20 in1022.7 mb - 0.00 in0.0 mm 0.00 in0.0 mm